TXL weather

Berlin-Tegel Airport
Berlin, Berlin, Germany

Public forecast

Using degrees Celsius for public forecast. Weather courtesy of forecast.io.

METAR (pilot weather report)

Retrieved 2019/03/20 06:50 UTC (10 minutes ago):

EDDT 200650Z 27003KT 240V310 CAVOK 03/M01 Q1032 NOSIG

TAF (pilot weather forecast)

Retrieved 2019/03/20 06:27 UTC (33 minutes ago):

TAF EDDT 200500Z 2006/2106 22004KT CAVOK BECMG 2008/2011 22011KT BECMG 2016/2019 25005KT PROB30 TEMPO 2100/2106 BKN012